Terminal Aerodrome Forecast
Issued by NWS

Home | Current Version | Previous Version | Text Only | Print | Product List | Glossary On
Versions: 1 2 3 4 5 6 7 8 9 10 11 12 13
638
FTAK31 PAJN 141729
TAFAWG
TAF
PAWG 141729Z 1418/1518 09005KT P6SM -SHRA BKN035 OVC040
     FM142100 13008KT 6SM -SHRA BR BKN030 OVC040
     FM150000 31005KT 5SM -SHRA BR SCT007 BKN015 OVC025
     FM150600 23007KT 4SM -SHRA BR BKN007 OVC015
     FM151500 10003KT 6SM -SHRA BR SCT007 OVC020
      AMD LTD TO CLD VIS AND WIND 1506/1515=

USA.gov is the U.S. government's official web portal to all federal, state and local government web resources and services.